Time,TemperatureF,DewpointF,PressureIn,WindDirection,WindDirectionDegrees,WindSpeedMPH,WindSpeedGustMPH,Humidity,HourlyPrecipIn,Conditions,Clouds,dailyrainin,SolarRadiationWatts/m^2,SoftwareType,DateUTC
2014-03-04 00:01:00,60.2,57.9,30.00,ENE,73,6.0,15.0,92,0.00,,,0.00,3493,Weather View 32 v70,2014-03-04 08:01:00,
2014-03-04 00:06:00,60.2,57.9,30.00,East,90,7.0,15.0,92,0.00,,,0.00,3493,Weather View 32 v70,2014-03-04 08:06:00,
2014-03-04 00:11:00,60.1,57.8,29.99,East,86,4.0,15.0,92,0.00,,,0.00,3494,Weather View 32 v70,2014-03-04 08:11:00,
2014-03-04 00:16:00,59.9,57.6,30.00,ESE,123,4.0,15.0,92,0.00,,,0.00,3493,Weather View 32 v70,2014-03-04 08:16:00,
2014-03-04 00:21:00,59.7,57.4,30.00,ESE,111,4.0,15.0,92,0.00,,,0.00,3493,Weather View 32 v70,2014-03-04 08:21:00,
2014-03-04 00:26:00,59.5,57.5,30.00,East,96,5.0,15.0,93,0.00,,,0.00,3494,Weather View 32 v70,2014-03-04 08:26:00,
2014-03-04 00:31:00,59.3,57.3,30.00,East,94,4.0,15.0,93,0.00,,,0.00,3494,Weather View 32 v70,2014-03-04 08:31:00,
2014-03-04 00:36:00,59.1,57.1,30.00,East,85,3.0,15.0,93,0.00,,,0.00,3494,Weather View 32 v70,2014-03-04 08:36:00,
2014-03-04 00:41:00,59.2,57.2,30.00,East,101,4.0,15.0,93,0.00,,,0.00,3493,Weather View 32 v70,2014-03-04 08:41:00,
2014-03-04 00:46:00,59.3,57.3,29.99,ESE,105,4.0,14.0,93,0.00,,,0.00,3494,Weather View 32 v70,2014-03-04 08:46:00,
2014-03-04 00:51:00,59.3,57.3,29.99,ESE,113,6.0,14.0,93,0.00,,,0.00,3494,Weather View 32 v70,2014-03-04 08:51:00,
2014-03-04 00:56:00,59.4,57.4,30.00,East,100,5.0,13.0,93,0.00,,,0.00,3494,Weather View 32 v70,2014-03-04 08:56:00,
2014-03-04 01:01:00,59.3,57.3,30.00,East,91,3.0,13.0,93,0.00,,,0.00,3493,Weather View 32 v70,2014-03-04 09:01:00,
2014-03-04 01:06:00,59.4,57.4,30.00,East,97,5.0,10.0,93,0.00,,,0.00,3492,Weather View 32 v70,2014-03-04 09:06:00,
2014-03-04 01:11:00,59.5,57.5,30.00,East,89,3.0,7.0,93,0.00,,,0.00,3493,Weather View 32 v70,2014-03-04 09:11:00,
2014-03-04 01:16:00,59.4,57.4,30.00,ENE,74,5.0,7.0,93,0.00,,,0.00,3493,Weather View 32 v70,2014-03-04 09:16:00,
2014-03-04 01:20:00,59.4,57.4,30.00,SE,124,2.0,7.0,93,0.00,,,0.00,3493,Weather View 32 v70,2014-03-04 09:20:00,
2014-03-04 01:21:00,59.4,57.4,30.00,East,101,5.0,7.0,93,0.00,,,0.00,3494,Weather View 32 v70,2014-03-04 09:21:00,
2014-03-04 01:26:00,59.4,57.4,30.00,ESE,123,4.0,7.0,93,0.00,,,0.00,3493,Weather View 32 v70,2014-03-04 09:26:00,
2014-03-04 01:31:00,59.3,57.3,30.00,SE,124,6.0,7.0,93,0.00,,,0.00,3492,Weather View 32 v70,2014-03-04 09:31:00,
2014-03-04 01:36:00,59.2,57.2,30.00,SE,127,4.0,7.0,93,0.00,,,0.00,3492,Weather View 32 v70,2014-03-04 09:36:00,
2014-03-04 01:41:00,59.1,57.1,30.00,SE,126,3.0,7.0,93,0.00,,,0.00,3491,Weather View 32 v70,2014-03-04 09:41:00,
2014-03-04 01:46:00,59.0,57.0,29.99,ESE,122,4.0,7.0,93,0.00,,,0.00,3492,Weather View 32 v70,2014-03-04 09:46:00,
2014-03-04 01:51:00,58.8,56.8,29.99,SE,140,4.0,7.0,93,0.00,,,0.00,3492,Weather View 32 v70,2014-03-04 09:51:00,
2014-03-04 01:56:00,58.9,56.9,29.99,SSE,161,3.0,7.0,93,0.00,,,0.00,3492,Weather View 32 v70,2014-03-04 09:56:00,
2014-03-04 02:01:00,59.0,57.0,29.99,SE,146,5.0,7.0,93,0.00,,,0.00,3492,Weather View 32 v70,2014-03-04 10:01:00,
2014-03-04 02:06:00,59.1,57.1,29.99,SSE,147,3.0,7.0,93,0.00,,,0.00,3492,Weather View 32 v70,2014-03-04 10:06:00,
2014-03-04 02:11:00,59.0,57.0,29.99,SSE,161,3.0,7.0,93,0.00,,,0.00,3492,Weather View 32 v70,2014-03-04 10:11:00,
2014-03-04 02:16:00,58.9,56.9,30.00,SE,140,4.0,7.0,93,0.00,,,0.00,3492,Weather View 32 v70,2014-03-04 10:16:00,
2014-03-04 02:20:00,59.0,57.0,30.00,SE,144,5.0,7.0,93,0.00,,,0.00,3492,Weather View 32 v70,2014-03-04 10:20:00,
2014-03-04 02:21:00,59.0,57.0,30.00,ESE,123,4.0,7.0,93,0.00,,,0.00,3492,Weather View 32 v70,2014-03-04 10:21:00,
2014-03-04 02:26:00,58.8,56.5,30.00,East,82,4.0,7.0,92,0.00,,,0.00,3492,Weather View 32 v70,2014-03-04 10:26:00,
2014-03-04 02:31:00,58.8,56.5,30.00,ESE,115,1.0,7.0,92,0.00,,,0.00,3492,Weather View 32 v70,2014-03-04 10:31:00,
2014-03-04 02:36:00,58.8,56.5,29.99,ESE,122,1.0,7.0,92,0.00,,,0.00,3492,Weather View 32 v70,2014-03-04 10:36:00,
2014-03-04 02:41:00,59.0,56.7,29.99,SE,141,2.0,7.0,92,0.00,,,0.00,3489,Weather View 32 v70,2014-03-04 10:41:00,
2014-03-04 02:46:00,58.8,56.5,29.99,SSE,157,2.0,7.0,92,0.00,,,0.00,3488,Weather View 32 v70,2014-03-04 10:46:00,
2014-03-04 02:51:00,59.0,56.7,29.99,SSE,148,4.0,7.0,92,0.00,,,0.00,3488,Weather View 32 v70,2014-03-04 10:51:00,
2014-03-04 02:57:00,58.8,56.5,29.99,SE,145,5.0,7.0,92,0.00,,,0.00,3489,Weather View 32 v70,2014-03-04 10:57:00,
2014-03-04 03:02:00,58.7,56.4,29.99,ESE,122,5.0,7.0,92,0.00,,,0.00,3488,Weather View 32 v70,2014-03-04 11:02:00,
2014-03-04 03:07:00,58.6,56.3,29.99,ESE,122,5.0,7.0,92,0.00,,,0.00,3487,Weather View 32 v70,2014-03-04 11:07:00,
2014-03-04 03:12:00,58.8,56.5,29.99,SE,146,3.0,6.0,92,0.00,,,0.00,3488,Weather View 32 v70,2014-03-04 11:12:00,
2014-03-04 03:17:00,58.8,56.5,29.98,SSE,162,2.0,6.0,92,0.00,,,0.00,3487,Weather View 32 v70,2014-03-04 11:17:00,
2014-03-04 03:20:00,58.8,56.5,29.98,SSE,154,1.0,6.0,92,0.00,,,0.00,3487,Weather View 32 v70,2014-03-04 11:20:00,
2014-03-04 03:22:00,58.7,56.4,29.98,SE,144,0.0,6.0,92,0.00,,,0.00,3487,Weather View 32 v70,2014-03-04 11:22:00,
2014-03-04 03:27:00,58.7,56.4,29.98,SE,145,0.0,6.0,92,0.00,,,0.00,3486,Weather View 32 v70,2014-03-04 11:27:00,
2014-03-04 03:32:00,58.5,56.2,29.98,SSE,156,3.0,6.0,92,0.00,,,0.00,3486,Weather View 32 v70,2014-03-04 11:32:00,
2014-03-04 03:37:00,58.6,56.3,29.97,SSE,164,2.0,6.0,92,0.00,,,0.00,3485,Weather View 32 v70,2014-03-04 11:37:00,
2014-03-04 03:42:00,58.5,56.2,29.97,South,171,1.0,6.0,92,0.00,,,0.00,3485,Weather View 32 v70,2014-03-04 11:42:00,
2014-03-04 03:47:00,58.5,56.2,29.98,SE,125,4.0,6.0,92,0.00,,,0.00,3482,Weather View 32 v70,2014-03-04 11:47:00,
2014-03-04 03:52:00,58.3,56.0,29.98,ESE,113,4.0,6.0,92,0.00,,,0.00,3482,Weather View 32 v70,2014-03-04 11:52:00,
2014-03-04 03:57:00,58.3,56.3,29.98,ESE,116,5.0,6.0,93,0.00,,,0.00,3482,Weather View 32 v70,2014-03-04 11:57:00,
2014-03-04 04:02:00,58.5,56.5,29.98,SE,142,3.0,6.0,93,0.00,,,0.00,3481,Weather View 32 v70,2014-03-04 12:02:00,
2014-03-04 04:07:00,58.7,56.7,29.97,SSE,158,1.0,6.0,93,0.00,,,0.00,3479,Weather View 32 v70,2014-03-04 12:07:00,
2014-03-04 04:12:00,58.7,56.7,29.97,SSE,157,0.0,6.0,93,0.00,,,0.00,3481,Weather View 32 v70,2014-03-04 12:12:00,
2014-03-04 04:17:00,58.6,56.6,29.97,ESE,114,0.0,6.0,93,0.00,,,0.00,3479,Weather View 32 v70,2014-03-04 12:17:00,
2014-03-04 04:20:00,58.5,56.5,29.98,East,95,3.0,6.0,93,0.00,,,0.00,3480,Weather View 32 v70,2014-03-04 12:20:00,
2014-03-04 04:22:00,58.6,56.6,29.98,East,93,4.0,6.0,93,0.00,,,0.00,3480,Weather View 32 v70,2014-03-04 12:22:00,
2014-03-04 04:27:00,59.0,57.0,29.97,East,87,2.0,6.0,93,0.00,,,0.00,3479,Weather View 32 v70,2014-03-04 12:27:00,
2014-03-04 04:32:00,59.0,57.0,29.97,East,99,0.0,6.0,93,0.00,,,0.00,3477,Weather View 32 v70,2014-03-04 12:32:00,
2014-03-04 04:37:00,59.2,57.2,29.97,East,100,1.0,6.0,93,0.00,,,0.00,3478,Weather View 32 v70,2014-03-04 12:37:00,
2014-03-04 04:42:00,59.2,57.2,29.97,SE,127,3.0,6.0,93,0.00,,,0.00,3477,Weather View 32 v70,2014-03-04 12:42:00,
2014-03-04 04:47:00,59.1,57.1,29.96,SE,125,1.0,6.0,93,0.00,,,0.00,3478,Weather View 32 v70,2014-03-04 12:47:00,
2014-03-04 04:52:00,59.1,57.1,29.96,SE,126,2.0,6.0,93,0.00,,,0.00,3477,Weather View 32 v70,2014-03-04 12:52:00,
2014-03-04 04:57:00,59.1,57.1,29.96,ESE,114,0.0,5.0,93,0.00,,,0.00,3478,Weather View 32 v70,2014-03-04 12:57:00,
2014-03-04 05:02:00,59.2,57.2,29.96,ESE,114,0.0,5.0,93,0.00,,,0.00,3478,Weather View 32 v70,2014-03-04 13:02:00,
2014-03-04 05:07:00,59.3,57.3,29.96,ENE,64,0.0,5.0,93,0.00,,,0.00,3479,Weather View 32 v70,2014-03-04 13:07:00,
2014-03-04 05:12:00,59.1,57.1,29.96,ENE,65,0.0,5.0,93,0.00,,,0.00,3481,Weather View 32 v70,2014-03-04 13:12:00,
2014-03-04 05:17:00,58.6,56.6,29.96,SSW,197,1.0,5.0,93,0.00,,,0.00,3481,Weather View 32 v70,2014-03-04 13:17:00,
2014-03-04 05:20:00,58.6,56.6,29.96,SSW,197,0.0,5.0,93,0.00,,,0.00,3481,Weather View 32 v70,2014-03-04 13:20:00,
2014-03-04 05:22:00,58.5,56.5,29.96,SSW,197,1.0,5.0,93,0.00,,,0.00,3481,Weather View 32 v70,2014-03-04 13:22:00,
2014-03-04 05:28:00,58.4,56.4,29.96,South,183,2.0,3.0,93,0.00,,,0.00,3480,Weather View 32 v70,2014-03-04 13:28:00,
2014-03-04 05:33:00,58.3,56.3,29.96,South,182,0.0,3.0,93,0.00,,,0.00,3482,Weather View 32 v70,2014-03-04 13:33:00,
2014-03-04 05:38:00,58.4,56.4,29.97,South,182,0.0,3.0,93,0.00,,,0.00,3480,Weather View 32 v70,2014-03-04 13:38:00,
2014-03-04 05:43:00,58.4,56.4,29.97,ESE,106,0.0,3.0,93,0.00,,,0.00,3481,Weather View 32 v70,2014-03-04 13:43:00,
2014-03-04 05:48:00,58.5,56.5,29.97,SSE,151,0.0,2.0,93,0.00,,,0.00,3481,Weather View 32 v70,2014-03-04 13:48:00,
2014-03-04 05:53:00,58.5,56.5,29.97,SSE,155,0.0,2.0,93,0.00,,,0.00,3481,Weather View 32 v70,2014-03-04 13:53:00,
2014-03-04 05:58:00,58.5,56.5,29.97,SSE,148,0.0,2.0,93,0.00,,,0.00,3481,Weather View 32 v70,2014-03-04 13:58:00,
2014-03-04 06:03:00,58.6,56.6,29.97,SE,143,0.0,2.0,93,0.00,,,0.00,3482,Weather View 32 v70,2014-03-04 14:03:00,
2014-03-04 06:08:00,58.6,56.6,29.97,SE,142,0.0,2.0,93,0.00,,,0.00,3480,Weather View 32 v70,2014-03-04 14:08:00,
2014-03-04 06:13:00,58.6,56.6,29.97,SE,128,0.0,2.0,93,0.00,,,0.00,3481,Weather View 32 v70,2014-03-04 14:13:00,
2014-03-04 06:18:00,58.6,56.6,29.96,SE,128,0.0,2.0,93,0.00,,,0.00,3480,Weather View 32 v70,2014-03-04 14:18:00,
2014-03-04 06:20:00,58.6,56.6,29.96,SE,128,0.0,2.0,93,0.00,,,0.00,3481,Weather View 32 v70,2014-03-04 14:20:00,
2014-03-04 06:23:00,58.5,56.5,29.97,SE,128,0.0,2.0,93,0.00,,,0.00,3481,Weather View 32 v70,2014-03-04 14:23:00,
2014-03-04 06:28:00,58.6,56.6,29.97,SE,128,0.0,2.0,93,0.00,,,0.00,3479,Weather View 32 v70,2014-03-04 14:28:00,
2014-03-04 06:33:00,58.7,56.7,29.97,SE,128,0.0,0.0,93,0.00,,,0.00,3479,Weather View 32 v70,2014-03-04 14:33:00,
2014-03-04 06:38:00,59.0,57.0,29.97,SE,128,0.0,0.0,93,0.00,,,0.00,3480,Weather View 32 v70,2014-03-04 14:38:00,
2014-03-04 06:43:00,59.6,57.6,29.97,SE,128,0.0,0.0,93,0.00,,,0.00,3481,Weather View 32 v70,2014-03-04 14:43:00,
2014-03-04 06:48:00,59.4,57.4,29.97,SE,129,0.0,0.0,93,0.00,,,0.00,3481,Weather View 32 v70,2014-03-04 14:48:00,
2014-03-04 06:53:00,59.4,57.4,29.98,SE,129,0.0,0.0,93,0.00,,,0.00,3482,Weather View 32 v70,2014-03-04 14:53:00,
2014-03-04 06:58:00,59.4,57.4,29.98,SE,129,0.0,0.0,93,0.00,,,0.00,3482,Weather View 32 v70,2014-03-04 14:58:00,
2014-03-04 07:03:00,59.4,57.4,29.99,SE,146,0.0,0.0,93,0.00,,,0.00,3483,Weather View 32 v70,2014-03-04 15:03:00,
2014-03-04 07:08:00,59.4,57.4,29.99,South,180,0.0,0.0,93,0.00,,,0.00,3481,Weather View 32 v70,2014-03-04 15:08:00,
2014-03-04 07:13:00,59.3,57.3,29.99,SSE,166,0.0,0.0,93,0.00,,,0.00,3481,Weather View 32 v70,2014-03-04 15:13:00,
2014-03-04 07:18:00,59.2,57.2,29.99,SSW,196,0.0,0.0,93,0.00,,,0.00,3483,Weather View 32 v70,2014-03-04 15:18:00,
2014-03-04 07:20:00,59.3,57.3,29.99,South,178,0.0,0.0,93,0.00,,,0.00,3483,Weather View 32 v70,2014-03-04 15:20:00,
2014-03-04 07:23:00,59.3,57.3,29.99,South,187,0.0,0.0,93,0.00,,,0.00,3484,Weather View 32 v70,2014-03-04 15:23:00,
2014-03-04 07:28:00,59.3,57.3,29.98,SSW,197,0.0,0.0,93,0.00,,,0.00,3483,Weather View 32 v70,2014-03-04 15:28:00,
2014-03-04 07:33:00,59.2,57.2,29.98,SW,214,0.0,0.0,93,0.00,,,0.00,3483,Weather View 32 v70,2014-03-04 15:33:00,
2014-03-04 07:38:00,59.3,57.3,29.99,South,171,0.0,0.0,93,0.00,,,0.00,3483,Weather View 32 v70,2014-03-04 15:38:00,
2014-03-04 07:43:00,59.3,57.3,29.99,South,170,2.0,4.0,93,0.00,,,0.00,3485,Weather View 32 v70,2014-03-04 15:43:00,
2014-03-04 07:48:00,59.5,57.5,29.99,SSW,195,2.0,4.0,93,0.00,,,0.00,3485,Weather View 32 v70,2014-03-04 15:48:00,
2014-03-04 07:53:00,59.6,57.6,29.99,SSW,196,0.0,4.0,93,0.00,,,0.00,3485,Weather View 32 v70,2014-03-04 15:53:00,
2014-03-04 07:58:00,60.1,58.1,29.99,SSW,199,0.0,4.0,93,0.00,,,0.00,3484,Weather View 32 v70,2014-03-04 15:58:00,
2014-03-04 08:04:00,60.7,58.7,29.98,NE,37,0.0,6.0,93,0.00,,,0.00,3482,Weather View 32 v70,2014-03-04 16:04:00,
2014-03-04 08:09:00,61.3,59.3,29.98,NE,51,0.0,6.0,93,0.00,,,0.00,3481,Weather View 32 v70,2014-03-04 16:09:00,
2014-03-04 08:14:00,61.8,59.4,29.98,ENE,60,10.0,10.0,92,0.00,,,0.00,3482,Weather View 32 v70,2014-03-04 16:14:00,
2014-03-04 08:19:00,62.3,59.6,29.98,ENE,77,1.0,11.0,91,0.00,,,0.00,3483,Weather View 32 v70,2014-03-04 16:19:00,
2014-03-04 08:20:00,62.3,59.3,29.99,South,169,2.0,11.0,90,0.00,,,0.00,3481,Weather View 32 v70,2014-03-04 16:20:00,
2014-03-04 08:24:00,62.8,59.5,29.99,ENE,77,5.0,11.0,89,0.00,,,0.00,3481,Weather View 32 v70,2014-03-04 16:24:00,
2014-03-04 08:29:00,62.3,58.7,29.99,SSE,156,7.0,11.0,88,0.00,,,0.00,3484,Weather View 32 v70,2014-03-04 16:29:00,
2014-03-04 08:34:00,62.5,58.9,29.99,ESE,115,6.0,11.0,88,0.00,,,0.00,3485,Weather View 32 v70,2014-03-04 16:34:00,
2014-03-04 08:39:00,62.5,58.6,29.99,ESE,117,5.0,12.0,87,0.00,,,0.00,3485,Weather View 32 v70,2014-03-04 16:39:00,
2014-03-04 08:44:00,63.0,59.1,29.99,SSE,149,7.0,12.0,87,0.00,,,0.00,3485,Weather View 32 v70,2014-03-04 16:44:00,
2014-03-04 08:49:00,62.8,58.5,30.00,SSE,161,5.0,12.0,86,0.00,,,0.00,3487,Weather View 32 v70,2014-03-04 16:49:00,
2014-03-04 08:54:00,62.8,58.2,29.99,South,179,2.0,12.0,85,0.00,,,0.00,3487,Weather View 32 v70,2014-03-04 16:54:00,
2014-03-04 08:59:00,63.0,58.4,29.99,ESE,122,2.0,12.0,85,0.00,,,0.00,3487,Weather View 32 v70,2014-03-04 16:59:00,
2014-03-04 09:04:00,63.3,58.4,29.99,East,93,3.0,12.0,84,0.00,,,0.00,3487,Weather View 32 v70,2014-03-04 17:04:00,
2014-03-04 09:09:00,63.1,58.2,29.99,NE,47,5.0,12.0,84,0.00,,,0.00,3485,Weather View 32 v70,2014-03-04 17:09:00,
2014-03-04 09:14:00,63.0,58.1,29.99,ENE,61,7.0,12.0,84,0.00,,,0.00,3484,Weather View 32 v70,2014-03-04 17:14:00,
2014-03-04 09:19:00,63.8,59.2,30.00,East,98,7.0,12.0,85,0.00,,,0.00,3484,Weather View 32 v70,2014-03-04 17:19:00,
2014-03-04 09:20:00,63.9,59.0,30.00,East,95,2.0,12.0,84,0.00,,,0.00,3484,Weather View 32 v70,2014-03-04 17:20:00,
2014-03-04 09:24:00,64.2,58.9,30.00,ENE,67,5.0,12.0,83,0.00,,,0.00,3484,Weather View 32 v70,2014-03-04 17:24:00,
2014-03-04 09:29:00,64.3,58.7,30.00,ENE,75,5.0,12.0,82,0.00,,,0.00,3484,Weather View 32 v70,2014-03-04 17:29:00,
2014-03-04 09:34:00,63.9,57.9,30.00,North,9,6.0,12.0,81,0.00,,,0.00,3484,Weather View 32 v70,2014-03-04 17:34:00,
2014-03-04 09:39:00,64.8,58.5,30.00,ENE,73,5.0,11.0,80,0.00,,,0.00,3482,Weather View 32 v70,2014-03-04 17:39:00,
2014-03-04 09:44:00,64.5,57.5,30.00,East,90,7.0,11.0,78,0.00,,,0.00,3482,Weather View 32 v70,2014-03-04 17:44:00,
2014-03-04 09:49:00,65.0,58.3,30.00,NNW,348,2.0,11.0,79,0.00,,,0.00,3484,Weather View 32 v70,2014-03-04 17:49:00,
2014-03-04 09:54:00,64.1,57.1,30.01,NE,40,8.0,11.0,78,0.00,,,0.00,3484,Weather View 32 v70,2014-03-04 17:54:00,
2014-03-04 09:59:00,63.9,57.2,30.01,NNE,27,8.0,11.0,79,0.00,,,0.00,3485,Weather View 32 v70,2014-03-04 17:59:00,
2014-03-04 10:04:00,64.3,58.0,30.00,NNW,343,5.0,11.0,80,0.00,,,0.00,3484,Weather View 32 v70,2014-03-04 18:04:00,
2014-03-04 10:09:00,64.3,57.6,30.00,ESE,122,1.0,11.0,79,0.00,,,0.00,3483,Weather View 32 v70,2014-03-04 18:09:00,
2014-03-04 10:14:00,64.5,57.5,30.00,NE,37,5.0,11.0,78,0.00,,,0.00,3484,Weather View 32 v70,2014-03-04 18:14:00,
2014-03-04 10:19:00,64.2,57.5,30.00,NNE,16,6.0,11.0,79,0.00,,,0.00,3486,Weather View 32 v70,2014-03-04 18:19:00,
2014-03-04 10:20:00,64.3,57.6,30.00,NE,44,3.0,11.0,79,0.00,,,0.00,3487,Weather View 32 v70,2014-03-04 18:20:00,
2014-03-04 10:24:00,64.4,57.7,30.00,ENE,69,3.0,11.0,79,0.00,,,0.00,3486,Weather View 32 v70,2014-03-04 18:24:00,
2014-03-04 10:29:00,65.1,58.4,29.99,NNE,25,4.0,12.0,79,0.00,,,0.00,3485,Weather View 32 v70,2014-03-04 18:29:00,
2014-03-04 10:34:00,64.5,57.1,29.99,East,84,6.0,12.0,77,0.00,,,0.00,3486,Weather View 32 v70,2014-03-04 18:34:00,
2014-03-04 10:39:00,63.9,56.5,29.99,NNE,30,9.0,12.0,77,0.00,,,0.00,3484,Weather View 32 v70,2014-03-04 18:39:00,
2014-03-04 10:44:00,64.1,57.1,30.00,NE,49,6.0,12.0,78,0.00,,,0.00,3485,Weather View 32 v70,2014-03-04 18:44:00,
2014-03-04 10:49:00,63.4,56.0,30.00,ENE,60,6.0,15.0,77,0.00,,,0.00,3485,Weather View 32 v70,2014-03-04 18:49:00,
2014-03-04 10:54:00,63.5,56.5,29.99,NNE,27,5.0,15.0,78,0.00,,,0.00,3486,Weather View 32 v70,2014-03-04 18:54:00,
2014-03-04 11:00:00,63.7,57.0,29.99,NNE,13,8.0,15.0,79,0.00,,,0.00,3487,Weather View 32 v70,2014-03-04 19:00:00,
2014-03-04 11:05:00,63.7,57.0,29.99,NNE,13,9.0,15.0,79,0.00,,,0.00,3488,Weather View 32 v70,2014-03-04 19:05:00,
2014-03-04 11:10:00,63.8,57.5,29.99,ENE,72,6.0,15.0,80,0.00,,,0.00,3487,Weather View 32 v70,2014-03-04 19:10:00,
2014-03-04 11:15:00,64.9,58.2,29.99,NE,56,5.0,15.0,79,0.00,,,0.00,3486,Weather View 32 v70,2014-03-04 19:15:00,
2014-03-04 11:20:00,64.7,57.7,29.99,ENE,72,6.0,16.0,78,0.00,,,0.00,3486,Weather View 32 v70,2014-03-04 19:20:00,
2014-03-04 11:25:00,64.9,57.9,29.99,East,82,8.0,16.0,78,0.00,,,0.00,3488,Weather View 32 v70,2014-03-04 19:25:00,
2014-03-04 11:30:00,64.9,57.5,29.99,NE,55,8.0,16.0,77,0.00,,,0.00,3481,Weather View 32 v70,2014-03-04 19:30:00,
2014-03-04 11:35:00,64.7,57.3,29.99,East,86,11.0,16.0,77,0.00,,,0.00,3479,Weather View 32 v70,2014-03-04 19:35:00,
2014-03-04 11:40:00,65.3,58.2,29.98,East,80,4.0,16.0,78,0.00,,,0.00,3477,Weather View 32 v70,2014-03-04 19:40:00,
2014-03-04 11:45:00,64.2,56.5,29.98,NE,52,6.0,16.0,76,0.00,,,0.00,3479,Weather View 32 v70,2014-03-04 19:45:00,
2014-03-04 11:50:00,65.1,57.7,29.99,ESE,117,10.0,16.0,77,0.00,,,0.00,3478,Weather View 32 v70,2014-03-04 19:50:00,
2014-03-04 11:55:00,65.2,57.1,29.99,East,84,9.0,16.0,75,0.00,,,0.00,3476,Weather View 32 v70,2014-03-04 19:55:00,
2014-03-04 12:00:00,65.3,57.5,29.98,ENE,72,6.0,16.0,76,0.00,,,0.00,3476,Weather View 32 v70,2014-03-04 20:00:00,
2014-03-04 12:05:00,64.9,57.1,29.97,NE,53,7.0,16.0,76,0.00,,,0.00,3478,Weather View 32 v70,2014-03-04 20:05:00,
2014-03-04 12:10:00,65.9,57.7,29.97,East,84,10.0,17.0,75,0.00,,,0.00,3476,Weather View 32 v70,2014-03-04 20:10:00,
2014-03-04 12:15:00,65.4,57.2,29.97,NE,46,5.0,17.0,75,0.00,,,0.00,3480,Weather View 32 v70,2014-03-04 20:15:00,
2014-03-04 12:20:00,65.3,57.9,29.97,East,96,5.0,17.0,77,0.00,,,0.00,3477,Weather View 32 v70,2014-03-04 20:20:00,
2014-03-04 12:25:00,65.6,57.8,29.97,ENE,71,17.0,17.0,76,0.00,,,0.00,3478,Weather View 32 v70,2014-03-04 20:25:00,
2014-03-04 12:30:00,65.5,57.3,29.97,ENE,58,11.0,17.0,75,0.00,,,0.00,3477,Weather View 32 v70,2014-03-04 20:30:00,
2014-03-04 12:35:00,64.9,56.8,29.96,ENE,72,7.0,18.0,75,0.00,,,0.00,3478,Weather View 32 v70,2014-03-04 20:35:00,
2014-03-04 12:40:00,65.2,57.1,29.96,ENE,61,6.0,19.0,75,0.00,,,0.00,3480,Weather View 32 v70,2014-03-04 20:40:00,
2014-03-04 12:45:00,65.5,57.3,29.96,NNE,29,12.0,19.0,75,0.00,,,0.00,3478,Weather View 32 v70,2014-03-04 20:45:00,
2014-03-04 12:50:00,64.6,57.2,29.96,NE,43,13.0,19.0,77,0.00,,,0.00,3480,Weather View 32 v70,2014-03-04 20:50:00,
2014-03-04 12:55:00,64.8,57.4,29.95,NE,34,11.0,19.0,77,0.00,,,0.00,3480,Weather View 32 v70,2014-03-04 20:55:00,
2014-03-04 13:00:00,64.6,57.9,29.96,NE,53,6.0,19.0,79,0.00,,,0.00,3481,Weather View 32 v70,2014-03-04 21:00:00,
2014-03-04 13:05:00,64.8,57.8,29.95,North,6,10.0,19.0,78,0.00,,,0.00,3478,Weather View 32 v70,2014-03-04 21:05:00,
2014-03-04 13:10:00,65.1,58.4,29.96,NNE,13,5.0,19.0,79,0.00,,,0.00,3479,Weather View 32 v70,2014-03-04 21:10:00,
2014-03-04 13:15:00,65.0,58.3,29.95,East,81,12.0,19.0,79,0.00,,,0.00,3479,Weather View 32 v70,2014-03-04 21:15:00,
2014-03-04 13:20:00,65.6,58.5,29.95,ENE,72,7.0,19.0,78,0.00,,,0.00,3478,Weather View 32 v70,2014-03-04 21:20:00,
2014-03-04 13:25:00,66.0,59.3,29.95,NNE,25,6.0,19.0,79,0.00,,,0.00,3475,Weather View 32 v70,2014-03-04 21:25:00,
2014-03-04 13:30:00,64.4,57.0,29.95,NNE,33,11.0,19.0,77,0.00,,,0.00,3479,Weather View 32 v70,2014-03-04 21:30:00,
2014-03-04 13:35:00,65.2,58.5,29.94,NNE,19,7.0,19.0,79,0.00,,,0.00,3478,Weather View 32 v70,2014-03-04 21:35:00,
2014-03-04 13:40:00,65.3,58.2,29.94,NW,325,8.0,19.0,78,0.00,,,0.00,3477,Weather View 32 v70,2014-03-04 21:40:00,
2014-03-04 13:45:00,65.5,58.1,29.94,NNE,12,5.0,19.0,77,0.00,,,0.00,3477,Weather View 32 v70,2014-03-04 21:45:00,
2014-03-04 13:50:00,65.5,58.1,29.95,North,354,7.0,18.0,77,0.00,,,0.00,3476,Weather View 32 v70,2014-03-04 21:50:00,
2014-03-04 13:55:00,64.8,57.4,29.94,North,3,7.0,18.0,77,0.00,,,0.00,3478,Weather View 32 v70,2014-03-04 21:55:00,
2014-03-04 14:00:00,65.4,58.0,29.94,North,1,3.0,16.0,77,0.00,,,0.00,3478,Weather View 32 v70,2014-03-04 22:00:00,
2014-03-04 14:05:00,65.5,58.1,29.94,North,11,6.0,16.0,77,0.00,,,0.00,3478,Weather View 32 v70,2014-03-04 22:05:00,
2014-03-04 14:10:00,64.7,56.9,29.94,NNE,14,7.0,16.0,76,0.00,,,0.00,3478,Weather View 32 v70,2014-03-04 22:10:00,
2014-03-04 14:15:00,65.0,57.6,29.94,NE,36,8.0,15.0,77,0.00,,,0.00,3477,Weather View 32 v70,2014-03-04 22:15:00,
2014-03-04 14:20:00,65.5,58.1,29.93,North,359,3.0,15.0,77,0.00,,,0.00,3477,Weather View 32 v70,2014-03-04 22:20:00,
2014-03-04 14:25:00,65.2,57.8,29.93,NNW,336,7.0,13.0,77,0.00,,,0.00,3478,Weather View 32 v70,2014-03-04 22:25:00,
2014-03-04 14:30:00,64.8,57.4,29.93,NNE,21,10.0,14.0,77,0.00,,,0.00,3478,Weather View 32 v70,2014-03-04 22:30:00,
2014-03-04 14:35:00,65.4,58.3,29.93,East,85,2.0,14.0,78,0.00,,,0.00,3478,Weather View 32 v70,2014-03-04 22:35:00,
2014-03-04 14:40:00,65.5,57.7,29.93,NNE,33,4.0,14.0,76,0.00,,,0.00,3477,Weather View 32 v70,2014-03-04 22:40:00,
2014-03-04 14:45:00,65.9,58.1,29.93,North,358,8.0,14.0,76,0.00,,,0.00,3479,Weather View 32 v70,2014-03-04 22:45:00,
2014-03-04 14:50:00,65.4,57.6,29.93,NNE,29,11.0,14.0,76,0.00,,,0.00,3480,Weather View 32 v70,2014-03-04 22:50:00,
2014-03-04 14:55:00,64.8,57.0,29.93,NNE,21,11.0,14.0,76,0.00,,,0.00,3481,Weather View 32 v70,2014-03-04 22:55:00,
2014-03-04 15:00:00,64.6,57.2,29.93,North,5,6.0,16.0,77,0.00,,,0.00,3483,Weather View 32 v70,2014-03-04 23:00:00,
2014-03-04 15:05:00,64.8,57.4,29.93,NE,37,15.0,16.0,77,0.00,,,0.00,3482,Weather View 32 v70,2014-03-04 23:05:00,
2014-03-04 15:10:00,64.8,57.4,29.93,NNE,32,9.0,17.0,77,0.00,,,0.00,3482,Weather View 32 v70,2014-03-04 23:10:00,
2014-03-04 15:15:00,65.1,58.0,29.93,NE,41,9.0,17.0,78,0.00,,,0.00,3483,Weather View 32 v70,2014-03-04 23:15:00,
2014-03-04 15:20:00,65.0,58.0,29.93,ENE,57,10.0,17.0,78,0.00,,,0.00,3484,Weather View 32 v70,2014-03-04 23:20:00,
2014-03-04 15:25:00,64.9,57.5,29.92,North,4,5.0,17.0,77,0.00,,,0.00,3483,Weather View 32 v70,2014-03-04 23:25:00,
2014-03-04 15:30:00,65.2,58.1,29.93,ENE,66,9.0,17.0,78,0.00,,,0.00,3483,Weather View 32 v70,2014-03-04 23:30:00,
2014-03-04 15:35:00,64.8,57.8,29.93,NE,42,7.0,17.0,78,0.00,,,0.00,3484,Weather View 32 v70,2014-03-04 23:35:00,
2014-03-04 15:40:00,65.1,58.0,29.93,NNE,30,10.0,17.0,78,0.00,,,0.00,3483,Weather View 32 v70,2014-03-04 23:40:00,
2014-03-04 15:45:00,65.3,57.9,29.93,ENE,78,6.0,17.0,77,0.00,,,0.00,3483,Weather View 32 v70,2014-03-04 23:45:00,
2014-03-04 15:50:00,65.9,58.8,29.94,NE,49,8.0,17.0,78,0.00,,,0.00,3483,Weather View 32 v70,2014-03-04 23:50:00,
2014-03-04 15:55:00,65.2,57.8,29.94,East,100,4.0,17.0,77,0.00,,,0.00,3485,Weather View 32 v70,2014-03-04 23:55:00,
2014-03-04 16:00:00,64.9,57.9,29.94,NE,45,7.0,17.0,78,0.00,,,0.00,3486,Weather View 32 v70,2014-03-05 00:00:00,
2014-03-04 16:05:00,64.9,57.9,29.94,ENE,70,10.0,17.0,78,0.00,,,0.00,3485,Weather View 32 v70,2014-03-05 00:05:00,
2014-03-04 16:10:00,65.1,58.4,29.93,East,88,3.0,16.0,79,0.00,,,0.00,3485,Weather View 32 v70,2014-03-05 00:10:00,
2014-03-04 16:15:00,65.1,58.0,29.93,NNE,25,5.0,16.0,78,0.00,,,0.00,3485,Weather View 32 v70,2014-03-05 00:15:00,
2014-03-04 16:20:00,64.9,58.2,29.93,NE,34,2.0,16.0,79,0.00,,,0.00,3487,Weather View 32 v70,2014-03-05 00:20:00,
2014-03-04 16:25:00,64.5,57.8,29.94,NNE,28,9.0,13.0,79,0.00,,,0.00,3488,Weather View 32 v70,2014-03-05 00:25:00,
2014-03-04 16:30:00,64.5,58.2,29.94,NNE,29,7.0,13.0,80,0.00,,,0.00,3487,Weather View 32 v70,2014-03-05 00:30:00,
2014-03-04 16:35:00,64.4,58.1,29.94,ENE,57,5.0,13.0,80,0.00,,,0.00,3488,Weather View 32 v70,2014-03-05 00:35:00,
2014-03-04 16:40:00,64.6,58.3,29.93,NNE,20,4.0,13.0,80,0.00,,,0.00,3487,Weather View 32 v70,2014-03-05 00:40:00,
2014-03-04 16:45:00,64.7,58.4,29.93,NE,42,3.0,13.0,80,0.00,,,0.00,3488,Weather View 32 v70,2014-03-05 00:45:00,
2014-03-04 16:50:00,64.4,58.4,29.93,ENE,59,4.0,13.0,81,0.00,,,0.00,3490,Weather View 32 v70,2014-03-05 00:50:00,
2014-03-04 16:55:00,64.5,58.9,29.94,ENE,67,4.0,13.0,82,0.00,,,0.00,3489,Weather View 32 v70,2014-03-05 00:55:00,
2014-03-04 17:00:00,64.3,58.7,29.93,NNE,13,5.0,12.0,82,0.00,,,0.00,3489,Weather View 32 v70,2014-03-05 01:00:00,
2014-03-04 17:05:00,64.4,59.1,29.93,NNE,20,5.0,12.0,83,0.00,,,0.00,3490,Weather View 32 v70,2014-03-05 01:05:00,
2014-03-04 17:10:00,64.2,58.9,29.94,NE,52,4.0,11.0,83,0.00,,,0.00,3490,Weather View 32 v70,2014-03-05 01:10:00,
2014-03-04 17:15:00,64.1,59.2,29.93,NE,51,5.0,11.0,84,0.00,,,0.00,3492,Weather View 32 v70,2014-03-05 01:15:00,
2014-03-04 17:20:00,63.8,58.9,29.93,NNE,25,9.0,11.0,84,0.00,,,0.00,3493,Weather View 32 v70,2014-03-05 01:20:00,
2014-03-04 17:25:00,63.7,58.8,29.93,NE,38,4.0,11.0,84,0.00,,,0.00,3493,Weather View 32 v70,2014-03-05 01:25:00,
2014-03-04 17:30:00,63.5,58.9,29.93,NE,42,4.0,11.0,85,0.00,,,0.00,3493,Weather View 32 v70,2014-03-05 01:30:00,
2014-03-04 17:35:00,63.5,58.9,29.93,NE,42,7.0,11.0,85,0.00,,,0.00,3493,Weather View 32 v70,2014-03-05 01:35:00,
2014-03-04 17:40:00,63.4,58.8,29.94,ENE,60,9.0,11.0,85,0.00,,,0.00,3493,Weather View 32 v70,2014-03-05 01:40:00,
2014-03-04 17:45:00,63.3,59.0,29.94,NE,42,7.0,11.0,86,0.00,,,0.00,3494,Weather View 32 v70,2014-03-05 01:45:00,
2014-03-04 17:50:00,63.3,59.0,29.94,NE,51,8.0,11.0,86,0.00,,,0.00,3494,Weather View 32 v70,2014-03-05 01:50:00,
2014-03-04 17:55:00,63.2,58.9,29.95,NE,39,6.0,11.0,86,0.00,,,0.00,3494,Weather View 32 v70,2014-03-05 01:55:00,
2014-03-04 18:00:00,63.3,59.0,29.94,ENE,63,7.0,11.0,86,0.00,,,0.00,3495,Weather View 32 v70,2014-03-05 02:00:00,
2014-03-04 18:05:00,63.1,59.2,29.95,ENE,65,5.0,11.0,87,0.00,,,0.00,3494,Weather View 32 v70,2014-03-05 02:05:00,
2014-03-04 18:10:00,63.3,59.4,29.95,ENE,57,5.0,11.0,87,0.00,,,0.00,3494,Weather View 32 v70,2014-03-05 02:10:00,
2014-03-04 18:15:00,63.3,59.4,29.96,ENE,76,5.0,11.0,87,0.00,,,0.00,3494,Weather View 32 v70,2014-03-05 02:15:00,
2014-03-04 18:20:00,63.1,59.2,29.95,NNE,28,2.0,11.0,87,0.00,,,0.00,3494,Weather View 32 v70,2014-03-05 02:20:00,
2014-03-04 18:25:00,63.1,59.2,29.95,NNE,25,3.0,11.0,87,0.00,,,0.00,3495,Weather View 32 v70,2014-03-05 02:25:00,
2014-03-04 18:30:00,63.1,59.2,29.95,North,7,2.0,11.0,87,0.00,,,0.00,3494,Weather View 32 v70,2014-03-05 02:30:00,
2014-03-04 18:35:00,63.1,59.5,29.95,NNE,30,3.0,11.0,88,0.00,,,0.00,3494,Weather View 32 v70,2014-03-05 02:35:00,
2014-03-04 18:40:00,63.1,59.5,29.96,NE,43,3.0,11.0,88,0.00,,,0.00,3494,Weather View 32 v70,2014-03-05 02:40:00,
2014-03-04 18:45:00,63.1,59.5,29.96,NNE,12,4.0,10.0,88,0.00,,,0.00,3495,Weather View 32 v70,2014-03-05 02:45:00,
2014-03-04 18:50:00,63.1,59.5,29.95,North,360,2.0,10.0,88,0.00,,,0.00,3495,Weather View 32 v70,2014-03-05 02:50:00,
2014-03-04 18:55:00,63.0,59.4,29.96,NNE,29,5.0,10.0,88,0.00,,,0.00,3495,Weather View 32 v70,2014-03-05 02:55:00,
2014-03-04 19:00:00,63.0,59.7,29.96,North,7,4.0,10.0,89,0.00,,,0.00,3495,Weather View 32 v70,2014-03-05 03:00:00,
2014-03-04 19:05:00,63.0,59.7,29.96,NE,50,2.0,10.0,89,0.00,,,0.00,3494,Weather View 32 v70,2014-03-05 03:05:00,
2014-03-04 19:10:00,63.1,59.8,29.96,ENE,57,4.0,9.0,89,0.00,,,0.00,3494,Weather View 32 v70,2014-03-05 03:10:00,
2014-03-04 19:15:00,63.1,59.8,29.97,East,87,3.0,7.0,89,0.00,,,0.00,3495,Weather View 32 v70,2014-03-05 03:15:00,
2014-03-04 19:20:00,63.1,59.8,29.96,North,360,3.0,6.0,89,0.00,,,0.00,3495,Weather View 32 v70,2014-03-05 03:20:00,
2014-03-04 19:25:00,63.1,59.8,29.97,North,11,3.0,6.0,89,0.00,,,0.00,3494,Weather View 32 v70,2014-03-05 03:25:00,
2014-03-04 19:30:00,63.1,59.8,29.97,NNE,28,3.0,6.0,89,0.00,,,0.00,3494,Weather View 32 v70,2014-03-05 03:30:00,
2014-03-04 19:35:00,63.1,59.8,29.97,North,352,2.0,7.0,89,0.00,,,0.00,3495,Weather View 32 v70,2014-03-05 03:35:00,
2014-03-04 19:40:00,63.0,59.7,29.97,NNE,23,5.0,7.0,89,0.00,,,0.00,3494,Weather View 32 v70,2014-03-05 03:40:00,
2014-03-04 19:45:00,63.1,59.8,29.98,NE,48,4.0,7.0,89,0.00,,,0.00,3494,Weather View 32 v70,2014-03-05 03:45:00,
2014-03-04 19:50:00,63.1,59.8,29.98,NNW,339,1.0,7.0,89,0.00,,,0.00,3495,Weather View 32 v70,2014-03-05 03:50:00,
2014-03-04 19:55:00,63.0,59.7,29.98,NNE,26,6.0,8.0,89,0.00,,,0.00,3495,Weather View 32 v70,2014-03-05 03:55:00,
2014-03-04 20:00:00,63.0,59.7,29.98,NE,41,5.0,8.0,89,0.00,,,0.00,3495,Weather View 32 v70,2014-03-05 04:00:00,
2014-03-04 20:05:00,63.0,59.7,29.99,NNW,347,5.0,8.0,89,0.00,,,0.00,3495,Weather View 32 v70,2014-03-05 04:05:00,
2014-03-04 20:10:00,62.8,59.8,29.98,NE,42,7.0,8.0,90,0.00,,,0.00,3495,Weather View 32 v70,2014-03-05 04:10:00,
2014-03-04 20:15:00,62.6,59.6,29.99,NE,42,4.0,8.0,90,0.00,,,0.00,3495,Weather View 32 v70,2014-03-05 04:15:00,
2014-03-04 20:20:00,62.6,59.6,29.98,NE,36,4.0,8.0,90,0.00,,,0.00,3495,Weather View 32 v70,2014-03-05 04:20:00,
2014-03-04 20:25:00,62.6,59.9,29.98,NNW,337,3.0,8.0,91,0.00,,,0.00,3495,Weather View 32 v70,2014-03-05 04:25:00,
2014-03-04 20:30:00,62.7,60.0,29.99,North,8,2.0,8.0,91,0.00,,,0.00,3495,Weather View 32 v70,2014-03-05 04:30:00,
2014-03-04 20:35:00,62.8,60.1,29.98,NNE,28,4.0,8.0,91,0.00,,,0.00,3495,Weather View 32 v70,2014-03-05 04:35:00,
2014-03-04 20:40:00,62.8,60.1,29.99,NNE,14,3.0,8.0,91,0.00,,,0.00,3495,Weather View 32 v70,2014-03-05 04:40:00,
2014-03-04 20:45:00,62.8,60.1,29.98,NNW,346,3.0,8.0,91,0.00,,,0.00,3495,Weather View 32 v70,2014-03-05 04:45:00,
2014-03-04 20:50:00,62.9,60.2,29.99,North,6,2.0,8.0,91,0.00,,,0.00,3495,Weather View 32 v70,2014-03-05 04:50:00,
2014-03-04 20:55:00,62.9,60.2,29.99,NNW,348,1.0,8.0,91,0.00,,,0.00,3495,Weather View 32 v70,2014-03-05 04:55:00,
2014-03-04 21:00:00,63.0,60.3,29.99,NE,34,0.0,8.0,91,0.00,,,0.00,3495,Weather View 32 v70,2014-03-05 05:00:00,
2014-03-04 21:01:00,62.9,60.2,29.99,NNE,27,0.0,8.0,91,0.00,,,0.00,3495,Weather View 32 v70,2014-03-05 05:01:00,
2014-03-04 21:02:00,63.0,60.3,29.99,North,7,0.0,8.0,91,0.00,,,0.00,3495,Weather View 32 v70,2014-03-05 05:02:00,
2014-03-04 21:07:00,63.0,60.3,29.99,NNE,21,3.0,8.0,91,0.00,,,0.00,3495,Weather View 32 v70,2014-03-05 05:07:00,
2014-03-04 21:12:00,63.1,60.4,29.99,NNE,14,2.0,8.0,91,0.00,,,0.00,3495,Weather View 32 v70,2014-03-05 05:12:00,
2014-03-04 21:17:00,63.0,60.3,29.99,NNE,31,3.0,8.0,91,0.00,,,0.00,3495,Weather View 32 v70,2014-03-05 05:17:00,
2014-03-04 21:22:00,63.0,60.3,29.99,NE,50,1.0,7.0,91,0.00,,,0.00,3495,Weather View 32 v70,2014-03-05 05:22:00,
2014-03-04 21:27:00,63.0,60.3,29.99,NE,51,0.0,7.0,91,0.00,,,0.00,3495,Weather View 32 v70,2014-03-05 05:27:00,
2014-03-04 21:32:00,63.1,60.4,30.00,East,99,0.0,7.0,91,0.00,,,0.00,3495,Weather View 32 v70,2014-03-05 05:32:00,
2014-03-04 21:37:00,63.0,60.3,30.00,NNE,25,0.0,7.0,91,0.00,,,0.00,3495,Weather View 32 v70,2014-03-05 05:37:00,
2014-03-04 21:42:00,63.1,60.4,30.00,NNE,24,1.0,7.0,91,0.00,,,0.00,3495,Weather View 32 v70,2014-03-05 05:42:00,
2014-03-04 21:47:00,62.9,60.2,30.00,East,82,2.0,6.0,91,0.00,,,0.00,3495,Weather View 32 v70,2014-03-05 05:47:00,
2014-03-04 21:52:00,62.8,60.1,30.00,ESE,121,0.0,6.0,91,0.00,,,0.00,3495,Weather View 32 v70,2014-03-05 05:52:00,
2014-03-04 21:57:00,62.8,60.1,30.00,SSE,148,0.0,6.0,91,0.00,,,0.00,3495,Weather View 32 v70,2014-03-05 05:57:00,
2014-03-04 22:02:00,62.8,60.1,30.00,SE,143,0.0,6.0,91,0.00,,,0.00,3496,Weather View 32 v70,2014-03-05 06:02:00,
2014-03-04 22:08:00,62.8,60.1,30.00,NNE,23,0.0,6.0,91,0.00,,,0.00,3496,Weather View 32 v70,2014-03-05 06:08:00,
2014-03-04 22:13:00,62.7,60.0,30.00,NNE,33,3.0,6.0,91,0.00,,,0.00,3496,Weather View 32 v70,2014-03-05 06:13:00,
2014-03-04 22:18:00,62.8,60.1,30.00,North,357,0.0,6.0,91,0.00,,,0.00,3497,Weather View 32 v70,2014-03-05 06:18:00,
2014-03-04 22:23:00,62.7,60.0,30.00,North,2,2.0,6.0,91,0.00,,,0.00,3497,Weather View 32 v70,2014-03-05 06:23:00,
2014-03-04 22:28:00,62.7,60.0,30.00,North,10,0.0,6.0,91,0.00,,,0.00,3497,Weather View 32 v70,2014-03-05 06:28:00,
2014-03-04 22:33:00,62.6,59.9,30.00,NNE,32,0.0,6.0,91,0.00,,,0.00,3496,Weather View 32 v70,2014-03-05 06:33:00,
2014-03-04 22:38:00,62.6,59.9,30.01,North,5,0.0,6.0,91,0.00,,,0.00,3496,Weather View 32 v70,2014-03-05 06:38:00,
2014-03-04 22:43:00,62.6,59.9,30.00,NNE,13,0.0,6.0,91,0.00,,,0.00,3496,Weather View 32 v70,2014-03-05 06:43:00,
2014-03-04 22:48:00,62.6,59.9,30.00,NNE,18,2.0,6.0,91,0.00,,,0.00,3496,Weather View 32 v70,2014-03-05 06:48:00,
2014-03-04 22:53:00,62.7,60.3,30.00,North,11,0.0,6.0,92,0.00,,,0.00,3496,Weather View 32 v70,2014-03-05 06:53:00,
2014-03-04 22:58:00,62.6,59.9,30.00,North,2,0.0,6.0,91,0.00,,,0.00,3496,Weather View 32 v70,2014-03-05 06:58:00,
2014-03-04 23:03:00,62.6,59.9,30.00,NNW,342,2.0,6.0,91,0.00,,,0.00,3496,Weather View 32 v70,2014-03-05 07:03:00,
2014-03-04 23:08:00,62.6,59.9,30.00,NNE,15,0.0,6.0,91,0.00,,,0.00,3496,Weather View 32 v70,2014-03-05 07:08:00,
2014-03-04 23:13:00,62.6,59.9,30.00,NNE,13,0.0,4.0,91,0.00,,,0.00,3496,Weather View 32 v70,2014-03-05 07:13:00,
2014-03-04 23:18:00,62.7,60.0,29.99,NNW,333,2.0,4.0,91,0.00,,,0.00,3496,Weather View 32 v70,2014-03-05 07:18:00,
2014-03-04 23:23:00,62.8,60.1,30.00,North,4,2.0,4.0,91,0.00,,,0.00,3496,Weather View 32 v70,2014-03-05 07:23:00,
2014-03-04 23:28:00,62.8,60.1,30.00,NNE,25,3.0,4.0,91,0.00,,,0.00,3496,Weather View 32 v70,2014-03-05 07:28:00,
2014-03-04 23:33:00,62.9,60.2,30.00,NNW,338,0.0,4.0,91,0.00,,,0.00,3496,Weather View 32 v70,2014-03-05 07:33:00,
2014-03-04 23:38:00,62.9,60.2,30.00,North,354,2.0,5.0,91,0.00,,,0.00,3496,Weather View 32 v70,2014-03-05 07:38:00,
2014-03-04 23:43:00,62.8,60.1,30.00,NW,314,3.0,5.0,91,0.00,,,0.00,3496,Weather View 32 v70,2014-03-05 07:43:00,
2014-03-04 23:48:00,62.8,60.1,30.00,North,354,2.0,5.0,91,0.00,,,0.00,3496,Weather View 32 v70,2014-03-05 07:48:00,
2014-03-04 23:53:00,62.8,60.1,30.00,NNW,346,2.0,5.0,91,0.00,,,0.00,3496,Weather View 32 v70,2014-03-05 07:53:00,
2014-03-04 23:58:00,62.8,59.8,30.00,NNW,337,5.0,5.0,90,0.00,,,0.00,3497,Weather View 32 v70,2014-03-05 07:58:00,